Time;durP1;ratioP1;P1;durP2;ratioP2;P2;SDS_P1;SDS_P2;PMS_P1;PMS_P2;Temp;Humidity;BMP_temperature;BMP_pressure;BME280_temperature;BME280_humidity;BME280_pressure;Samples;Min_cycle;Max_cycle;Signal;HPM_P1;HPM_P2
2022/05/09 00:01:41;;;;;;;9.60;7.10;;;;;;;11.31;84.71;97477.55;107708;1268;51049;-80
2022/05/09 00:04:12;;;;;;;9.50;7.40;;;;;;;11.25;84.55;97477.10;107683;1268;53421;-80
2022/05/09 00:06:42;;;;;;;9.30;6.80;;;;;;;11.16;84.36;97479.98;107669;1270;40323;-80
2022/05/09 00:09:13;;;;;;;9.30;7.10;;;;;;;11.07;84.50;97474.05;107694;1268;37066;-80
2022/05/09 00:11:45;;;;;;;8.20;7.30;;;;;;;10.96;84.59;97478.36;107664;1270;37661;-80
2022/05/09 00:14:16;;;;;;;9.20;7.20;;;;;;;10.91;84.91;97479.45;107710;1268;34469;-80
2022/05/09 00:16:47;;;;;;;7.20;6.60;;;;;;;10.87;85.10;97478.43;107669;1269;42614;-80
2022/05/09 00:19:20;;;;;;;8.70;6.90;;;;;;;10.80;85.27;97477.48;107722;1268;38726;-80
2022/05/09 00:21:53;;;;;;;9.10;6.80;;;;;;;10.71;85.68;97478.58;107676;1270;32348;-80
2022/05/09 00:24:25;;;;;;;7.90;7.00;;;;;;;10.68;85.77;97481.45;107690;1268;42728;-80
2022/05/09 00:26:57;;;;;;;9.60;6.80;;;;;;;10.65;85.82;97479.00;107716;1268;51614;-80
2022/05/09 00:29:28;;;;;;;9.20;7.70;;;;;;;10.62;86.28;97483.61;107861;1268;39629;-80
2022/05/09 00:31:59;;;;;;;9.50;7.00;;;;;;;10.56;86.90;97480.34;107689;1268;38742;-80
2022/05/09 00:34:30;;;;;;;9.60;7.10;;;;;;;10.54;87.31;97486.98;107616;1268;35136;-80
2022/05/09 00:37:02;;;;;;;8.60;6.90;;;;;;;10.54;87.52;97489.42;107697;1268;46163;-80
2022/05/09 00:39:33;;;;;;;8.50;7.40;;;;;;;10.52;87.35;97489.25;107736;1268;42725;-80
2022/05/09 00:42:12;;;;;;;10.50;7.00;;;;;;;10.50;87.47;97490.84;107740;1270;35068;-80
2022/05/09 00:44:43;;;;;;;8.90;7.70;;;;;;;10.49;87.50;97489.95;107700;1268;46715;-80
2022/05/09 00:47:14;;;;;;;8.60;7.40;;;;;;;10.45;87.59;97491.46;107707;1268;41728;-80
2022/05/09 00:49:49;;;;;;;8.50;7.30;;;;;;;10.44;87.83;97490.61;107725;1268;34735;-80
2022/05/09 00:52:25;;;;;;;9.40;7.20;;;;;;;10.39;87.89;97490.44;107695;1268;44422;-80
2022/05/09 00:55:00;;;;;;;9.60;7.40;;;;;;;10.39;88.08;97491.30;107616;1270;50396;-80
2022/05/09 00:57:37;;;;;;;8.10;6.30;;;;;;;10.41;88.17;97497.42;107786;1268;33366;-80
2022/05/09 01:00:12;;;;;;;6.90;6.20;;;;;;;10.35;87.78;97499.70;107705;1268;39909;-80
2022/05/09 01:02:48;;;;;;;8.30;7.00;;;;;;;10.31;87.56;97502.92;107763;1269;33586;-80
2022/05/09 01:05:22;;;;;;;7.70;6.40;;;;;;;10.25;87.43;97504.30;107738;1268;31506;-80
2022/05/09 01:07:54;;;;;;;9.90;6.60;;;;;;;10.19;87.38;97504.55;107655;1268;38450;-80
2022/05/09 01:10:31;;;;;;;7.00;6.20;;;;;;;10.13;87.23;97505.29;107620;1270;34744;-80
2022/05/09 01:13:04;;;;;;;8.30;6.70;;;;;;;10.13;87.45;97505.81;107848;1268;39288;-80
2022/05/09 01:15:35;;;;;;;7.40;6.60;;;;;;;10.09;87.38;97508.80;107641;1270;43296;-80
2022/05/09 01:18:10;;;;;;;10.40;7.00;;;;;;;10.03;87.45;97507.59;107710;1268;45962;-80
2022/05/09 01:20:41;;;;;;;7.30;6.60;;;;;;;10.00;87.76;97510.73;107673;1268;51293;-80
2022/05/09 01:23:12;;;;;;;7.90;6.10;;;;;;;9.94;87.72;97514.66;107689;1268;46581;-80
2022/05/09 01:25:43;;;;;;;8.70;6.40;;;;;;;9.83;87.81;97516.78;107713;1268;40493;-80
2022/05/09 01:28:14;;;;;;;7.10;6.00;;;;;;;9.79;88.11;97515.73;107709;1268;53246;-80
2022/05/09 01:30:51;;;;;;;8.70;6.30;;;;;;;9.73;88.18;97518.22;107683;1270;32955;-80
2022/05/09 01:33:24;;;;;;;8.60;6.50;;;;;;;9.61;88.67;97520.70;107731;1268;32282;-81
2022/05/09 01:35:58;;;;;;;8.40;7.20;;;;;;;9.54;89.41;97515.65;107699;1268;38118;-80
2022/05/09 01:38:34;;;;;;;12.10;8.40;;;;;;;9.51;89.72;97517.15;107700;1268;39073;-80
2022/05/09 01:41:05;;;;;;;10.90;7.90;;;;;;;9.59;90.17;97517.98;107666;1268;40381;-78
2022/05/09 01:43:38;;;;;;;8.00;7.10;;;;;;;9.70;90.75;97516.02;107663;1268;51981;-79
2022/05/09 01:46:13;;;;;;;8.80;7.10;;;;;;;9.79;90.86;97514.80;107735;1268;35879;-80
2022/05/09 01:51:33;;;;;;;10.20;7.50;;;;;;;10.01;90.78;97511.66;107819;1268;34821;-80
2022/05/09 01:54:04;;;;;;;10.30;7.80;;;;;;;10.09;90.87;97513.04;107786;1270;30101;-80
2022/05/09 01:56:38;;;;;;;8.00;7.20;;;;;;;10.21;90.82;97513.10;107705;1270;43129;-77
2022/05/09 01:59:11;;;;;;;8.30;6.30;;;;;;;10.27;90.47;97516.14;107683;1268;43732;-80
2022/05/09 02:01:45;;;;;;;7.10;6.30;;;;;;;10.25;90.19;97519.71;107824;1269;34933;-80
2022/05/09 02:04:16;;;;;;;7.20;6.00;;;;;;;10.22;90.15;97520.54;107696;1268;34028;-80
2022/05/09 02:06:47;;;;;;;6.60;5.90;;;;;;;10.23;90.27;97520.34;107674;1270;40255;-80
2022/05/09 02:09:18;;;;;;;8.40;6.60;;;;;;;10.26;90.43;97522.95;107665;1268;53198;-80
2022/05/09 02:11:49;;;;;;;7.80;5.80;;;;;;;10.24;90.43;97521.71;107648;1269;43262;-81
2022/05/09 02:14:20;;;;;;;8.90;6.60;;;;;;;10.18;90.39;97523.19;107697;1270;38998;-80
2022/05/09 02:16:50;;;;;;;7.70;6.90;;;;;;;10.18;90.33;97526.85;107670;1269;44477;-80
2022/05/09 02:19:21;;;;;;;8.00;7.20;;;;;;;10.09;90.09;97527.94;107748;1270;37289;-80
2022/05/09 02:21:52;;;;;;;11.00;7.70;;;;;;;9.96;90.33;97526.86;107732;1268;39548;-80
2022/05/09 02:24:23;;;;;;;10.30;7.80;;;;;;;9.93;90.67;97528.11;107672;1271;43751;-81
2022/05/09 02:26:54;;;;;;;8.80;7.80;;;;;;;9.92;90.89;97526.99;107582;1270;35199;-80
2022/05/09 02:29:25;;;;;;;8.50;7.60;;;;;;;9.94;91.04;97521.86;107609;1270;45820;-80
2022/05/09 02:31:57;;;;;;;9.90;8.10;;;;;;;9.94;91.22;97519.27;107720;1268;35150;-80
2022/05/09 02:34:28;;;;;;;9.10;7.80;;;;;;;9.98;91.27;97519.26;107657;1270;52609;-81
2022/05/09 02:36:59;;;;;;;8.40;6.90;;;;;;;10.05;91.22;97519.58;107772;1268;36761;-80
2022/05/09 02:39:30;;;;;;;8.40;6.20;;;;;;;10.11;91.11;97518.24;107674;1268;43700;-80
2022/05/09 02:42:01;;;;;;;7.80;7.00;;;;;;;10.10;90.95;97511.88;107770;1268;36945;-80
2022/05/09 02:44:32;;;;;;;7.40;6.00;;;;;;;10.01;91.09;97511.19;107796;1270;40495;-80
2022/05/09 02:47:02;;;;;;;7.70;6.50;;;;;;;9.93;91.47;97511.59;107792;1268;44449;-80
2022/05/09 02:49:33;;;;;;;9.10;8.20;;;;;;;9.91;91.81;97504.79;107817;1268;30639;-80
2022/05/09 02:52:05;;;;;;;10.40;8.10;;;;;;;9.97;92.13;97501.82;107783;1270;36649;-80
2022/05/09 02:54:36;;;;;;;9.60;7.90;;;;;;;10.03;92.15;97501.30;107600;1270;45952;-77
2022/05/09 02:57:08;;;;;;;10.00;8.20;;;;;;;10.12;92.32;97507.88;107651;1270;79852;-80
2022/05/09 02:59:39;;;;;;;10.90;8.40;;;;;;;10.20;92.32;97506.99;107646;1268;44560;-80
2022/05/09 03:02:10;;;;;;;10.80;8.80;;;;;;;10.28;92.34;97506.17;107660;1270;41776;-80
2022/05/09 03:04:41;;;;;;;10.70;8.30;;;;;;;10.35;92.20;97506.01;107664;1268;33882;-80
2022/05/09 03:07:13;;;;;;;9.10;7.60;;;;;;;10.38;92.05;97504.39;107654;1269;72729;-80
2022/05/09 03:09:47;;;;;;;9.30;7.90;;;;;;;10.42;91.98;97507.83;107689;1268;43337;-79
2022/05/09 03:12:19;;;;;;;8.70;7.70;;;;;;;10.47;91.96;97509.33;107689;1268;33928;-80
2022/05/09 03:14:50;;;;;;;11.00;8.40;;;;;;;10.50;91.95;97513.38;107710;1268;36699;-79
2022/05/09 03:17:21;;;;;;;11.80;8.20;;;;;;;10.52;92.03;97516.20;107657;1270;43902;-80
2022/05/09 03:19:52;;;;;;;11.80;7.70;;;;;;;10.55;92.10;97522.48;107661;1270;35271;-80
2022/05/09 03:22:23;;;;;;;9.70;7.60;;;;;;;10.58;92.18;97526.54;107640;1271;104047;-80
2022/05/09 03:24:54;;;;;;;10.80;7.40;;;;;;;10.61;92.22;97522.16;107685;1270;43037;-79
2022/05/09 03:27:25;;;;;;;9.20;7.30;;;;;;;10.64;92.29;97522.98;107673;1269;47477;-79
2022/05/09 03:29:56;;;;;;;8.60;6.30;;;;;;;10.64;92.34;97527.84;107676;1270;39446;-80
2022/05/09 03:32:27;;;;;;;9.70;6.40;;;;;;;10.62;92.32;97536.64;107637;1270;38114;-79
2022/05/09 03:34:58;;;;;;;8.50;6.30;;;;;;;10.61;92.15;97536.05;107673;1269;39662;-80
2022/05/09 03:37:30;;;;;;;7.30;6.00;;;;;;;10.61;92.13;97540.23;107687;1270;37402;-80
2022/05/09 03:40:01;;;;;;;7.70;6.20;;;;;;;10.59;92.05;97539.91;107861;1269;32673;-79
2022/05/09 03:42:34;;;;;;;8.60;7.40;;;;;;;10.56;91.85;97547.09;107729;1268;38132;-79
2022/05/09 03:45:08;;;;;;;7.40;6.50;;;;;;;10.45;91.71;97554.44;107678;1270;85826;-79
2022/05/09 03:47:40;;;;;;;7.90;7.10;;;;;;;10.40;91.75;97558.84;107683;1269;53431;-80
2022/05/09 03:50:13;;;;;;;10.30;6.80;;;;;;;10.41;91.82;97560.66;107713;1268;54916;-79
2022/05/09 03:52:44;;;;;;;8.20;7.20;;;;;;;10.44;91.86;97563.08;107658;1270;47494;-80
2022/05/09 03:55:15;;;;;;;10.40;6.90;;;;;;;10.44;91.70;97569.71;107672;1270;41299;-79
2022/05/09 03:57:52;;;;;;;7.70;6.90;;;;;;;10.43;91.65;97568.38;107650;1268;41427;-79
2022/05/09 04:00:26;;;;;;;9.30;7.00;;;;;;;10.43;91.67;97559.05;107640;1270;36812;-79
2022/05/09 04:02:57;;;;;;;8.10;6.90;;;;;;;10.39;91.61;97559.38;107667;1268;48021;-79
2022/05/09 04:05:30;;;;;;;9.20;7.10;;;;;;;10.23;91.61;97562.73;107710;1270;34784;-79
2022/05/09 04:08:04;;;;;;;7.40;6.60;;;;;;;10.09;91.93;97569.41;107773;1268;36662;-79
2022/05/09 04:10:37;;;;;;;8.50;6.80;;;;;;;10.06;92.60;97563.25;107758;1268;43286;-79
2022/05/09 04:13:08;;;;;;;8.40;6.50;;;;;;;10.07;93.13;97563.52;107791;1268;39083;-79
2022/05/09 04:18:32;;;;;;;8.70;7.30;;;;;;;10.26;93.66;97561.97;107729;1270;41354;-80
2022/05/09 04:21:03;;;;;;;8.10;7.30;;;;;;;10.35;93.87;97563.75;107736;1268;41737;-80
2022/05/09 04:23:34;;;;;;;7.80;7.00;;;;;;;10.44;93.78;97566.36;107797;1270;40794;-79
2022/05/09 04:26:06;;;;;;;10.00;7.90;;;;;;;10.53;93.87;97567.11;107794;1268;40840;-79
2022/05/09 04:28:37;;;;;;;9.10;7.10;;;;;;;10.63;94.01;97568.52;107693;1270;43990;-78
2022/05/09 04:31:07;;;;;;;8.10;7.20;;;;;;;10.73;94.22;97570.08;107673;1270;37824;-79
2022/05/09 04:33:38;;;;;;;9.30;7.40;;;;;;;10.82;94.29;97572.94;107677;1268;45239;-79
2022/05/09 04:36:09;;;;;;;8.50;7.60;;;;;;;10.94;94.37;97574.50;107651;1270;33472;-79
2022/05/09 04:38:42;;;;;;;8.60;7.60;;;;;;;11.07;94.47;97577.38;107692;1268;38244;-80
2022/05/09 04:41:13;;;;;;;8.00;7.10;;;;;;;11.22;94.49;97576.98;107692;1270;43303;-80
2022/05/09 04:43:44;;;;;;;10.40;7.50;;;;;;;11.35;94.55;97573.86;107612;1270;36095;-80
2022/05/09 04:46:16;;;;;;;9.00;7.60;;;;;;;11.50;94.34;97580.13;107645;1270;40609;-80
2022/05/09 04:48:46;;;;;;;9.20;7.00;;;;;;;11.63;94.39;97583.42;107639;1270;39281;-80
2022/05/09 04:51:17;;;;;;;7.60;6.80;;;;;;;11.80;94.45;97583.23;107678;1269;48970;-79
2022/05/09 04:53:49;;;;;;;10.20;7.70;;;;;;;11.91;94.23;97585.60;107712;1268;62042;-80
2022/05/09 04:56:20;;;;;;;8.90;7.20;;;;;;;12.04;94.40;97582.70;107683;1269;43747;-80
2022/05/09 04:58:51;;;;;;;8.00;7.00;;;;;;;12.22;94.53;97584.23;107637;1270;46905;-79
2022/05/09 05:01:22;;;;;;;7.20;6.50;;;;;;;12.35;94.27;97585.71;107669;1270;34378;-80
2022/05/09 05:03:54;;;;;;;9.90;7.20;;;;;;;12.39;93.57;97585.20;107695;1268;39277;-80
2022/05/09 05:06:25;;;;;;;7.80;6.80;;;;;;;12.37;93.40;97583.11;107574;1270;57486;-80
2022/05/09 05:08:56;;;;;;;8.20;7.30;;;;;;;12.39;93.19;97581.95;107657;1268;43928;-80
2022/05/09 05:11:27;;;;;;;8.80;7.20;;;;;;;12.48;93.16;97586.41;107750;1270;34214;-80
2022/05/09 05:13:59;;;;;;;8.30;7.40;;;;;;;12.61;93.09;97589.87;107768;1270;32710;-79
2022/05/09 05:19:14;;;;;;;8.70;7.30;;;;;;;12.77;91.91;97585.44;107631;1268;47149;-79
2022/05/09 05:21:45;;;;;;;8.80;7.00;;;;;;;12.86;91.71;97587.83;107666;1268;37753;-79
2022/05/09 05:24:16;;;;;;;7.90;7.00;;;;;;;12.98;91.44;97587.48;107634;1270;46184;-79
2022/05/09 05:26:47;;;;;;;8.40;7.20;;;;;;;13.23;91.41;97597.45;107651;1270;63784;-79
2022/05/09 05:29:18;;;;;;;7.40;6.20;;;;;;;13.52;91.00;97600.63;107675;1270;38829;-79
2022/05/09 05:31:49;;;;;;;9.90;6.50;;;;;;;13.81;90.21;97592.45;107645;1270;41612;-80
2022/05/09 05:34:20;;;;;;;9.10;6.80;;;;;;;14.20;90.18;97599.52;107631;1270;30660;-79
2022/05/09 05:36:51;;;;;;;8.90;6.70;;;;;;;14.57;89.31;97597.05;107702;1268;46165;-80
2022/05/09 05:39:22;;;;;;;8.30;5.70;;;;;;;14.93;88.28;97596.05;107659;1268;47477;-79
2022/05/09 05:41:53;;;;;;;7.50;5.70;;;;;;;15.44;87.58;97599.30;107694;1269;48992;-79
2022/05/09 05:44:24;;;;;;;8.90;5.50;;;;;;;16.87;88.54;97600.78;107709;1270;38256;-80
2022/05/09 05:46:55;;;;;;;5.60;4.60;;;;;;;18.65;85.31;97601.70;107658;1268;44725;-80
2022/05/09 05:49:26;;;;;;;5.90;4.70;;;;;;;19.13;79.50;97598.05;107712;1270;33992;-80
2022/05/09 05:52:02;;;;;;;6.10;4.00;;;;;;;19.23;77.17;97602.09;107720;1268;34574;-80
2022/05/09 05:54:36;;;;;;;5.90;4.50;;;;;;;20.50;76.40;97599.40;107707;1270;50515;-80
2022/05/09 05:57:16;;;;;;;4.80;3.90;;;;;;;22.45;75.46;97604.66;107632;1270;51355;-80
2022/05/09 05:59:52;;;;;;;4.80;4.00;;;;;;;23.36;68.66;97603.16;107603;1271;48757;-80
2022/05/09 06:02:24;;;;;;;5.30;4.30;;;;;;;23.13;66.05;97596.67;107592;1268;48027;-80
2022/05/09 06:04:56;;;;;;;6.00;4.00;;;;;;;22.63;65.11;97599.20;107692;1268;45872;-80
2022/05/09 06:07:27;;;;;;;5.40;3.80;;;;;;;21.82;62.52;97602.69;107699;1268;37774;-81
2022/05/09 06:09:58;;;;;;;5.50;3.80;;;;;;;21.14;63.73;97605.48;107696;1269;37707;-80
2022/05/09 06:12:30;;;;;;;3.90;3.50;;;;;;;21.67;65.49;97603.39;107705;1268;39874;-81
2022/05/09 06:17:50;;;;;;;4.00;3.40;;;;;;;26.32;61.41;97604.44;107639;1270;88723;-81
2022/05/09 06:20:22;;;;;;;5.40;3.40;;;;;;;28.00;59.31;97606.21;107691;1268;46915;-82
2022/05/09 06:22:54;;;;;;;5.30;3.30;;;;;;;29.24;52.26;97605.34;107675;1270;56179;-81
2022/05/09 06:25:26;;;;;;;3.80;3.20;;;;;;;29.18;47.95;97604.41;107713;1268;42319;-81
2022/05/09 06:27:58;;;;;;;4.70;3.20;;;;;;;29.19;48.26;97606.29;107669;1268;53976;-81
2022/05/09 06:30:29;;;;;;;3.90;3.00;;;;;;;29.62;47.78;97608.24;107698;1269;53505;-81
2022/05/09 06:33:00;;;;;;;4.30;3.10;;;;;;;29.85;46.21;97606.61;107737;1268;34918;-81
2022/05/09 06:35:32;;;;;;;3.90;3.20;;;;;;;27.87;45.21;97615.13;107656;1268;36660;-82
2022/05/09 06:38:05;;;;;;;4.90;3.20;;;;;;;27.33;43.10;97613.89;107771;1268;47223;-81
2022/05/09 06:40:36;;;;;;;4.00;3.30;;;;;;;27.71;43.57;97614.85;107720;1268;49564;-82
2022/05/09 06:43:08;;;;;;;3.40;3.10;;;;;;;28.23;43.93;97615.77;107653;1268;47760;-81
2022/05/09 06:45:39;;;;;;;4.70;3.20;;;;;;;29.63;44.16;97611.89;107528;1268;95071;-82
2022/05/09 06:48:11;;;;;;;5.60;3.10;;;;;;;30.28;41.86;97612.54;107635;1270;68894;-81
2022/05/09 06:50:42;;;;;;;3.90;3.00;;;;;;;30.79;42.67;97614.14;107687;1268;45103;-81
2022/05/09 06:53:14;;;;;;;4.10;3.10;;;;;;;32.03;39.92;97613.88;107673;1269;52295;-82
2022/05/09 06:55:45;;;;;;;6.00;3.60;;;;;;;31.57;35.56;97616.95;107723;1269;49926;-82
2022/05/09 06:58:21;;;;;;;3.90;3.30;;;;;;;31.50;39.27;97617.90;107659;1269;78221;-82
2022/05/09 07:00:52;;;;;;;4.10;3.10;;;;;;;32.64;39.45;97617.41;107786;1268;34129;-82
2022/05/09 07:03:24;;;;;;;4.40;2.90;;;;;;;33.85;38.78;97619.44;107570;1270;61731;-82
2022/05/09 07:05:56;;;;;;;5.00;3.20;;;;;;;34.54;33.53;97619.69;107817;1270;67340;-83
2022/05/09 07:08:32;;;;;;;4.10;3.30;;;;;;;32.30;31.68;97620.21;107641;1271;47460;-82
2022/05/09 07:11:04;;;;;;;3.80;2.90;;;;;;;30.64;33.99;97623.27;107755;1268;38791;-82
2022/05/09 07:13:35;;;;;;;3.30;2.80;;;;;;;30.82;35.09;97624.19;107808;1271;34701;-82
2022/05/09 07:16:08;;;;;;;4.10;3.20;;;;;;;30.71;35.49;97626.70;107715;1268;61799;-82
2022/05/09 07:18:39;;;;;;;3.70;3.20;;;;;;;28.80;35.99;97627.98;107687;1271;44594;-81
2022/05/09 07:21:11;;;;;;;5.20;3.70;;;;;;;27.29;38.36;97633.59;107703;1268;38334;-82
2022/05/09 07:23:42;;;;;;;4.90;4.40;;;;;;;26.55;40.13;97635.42;107706;1271;43298;-81
2022/05/09 07:26:14;;;;;;;6.30;3.90;;;;;;;26.03;40.82;97635.27;107702;1268;45566;-82
2022/05/09 07:28:45;;;;;;;4.90;4.40;;;;;;;25.72;41.75;97634.48;107747;1268;32541;-82
2022/05/09 07:31:15;;;;;;;7.90;4.60;;;;;;;25.46;42.10;97637.16;107717;1268;33990;-82
2022/05/09 07:33:46;;;;;;;5.80;4.30;;;;;;;24.72;41.97;97637.03;107637;1268;45388;-82
2022/05/09 07:36:17;;;;;;;4.80;4.00;;;;;;;24.24;43.58;97636.95;107678;1268;48277;-81
2022/05/09 07:38:49;;;;;;;4.80;3.70;;;;;;;24.15;44.10;97638.61;107740;1268;36446;-81
2022/05/09 07:41:20;;;;;;;5.80;4.30;;;;;;;24.07;44.18;97639.08;107722;1268;41656;-82
2022/05/09 07:43:51;;;;;;;5.60;4.20;;;;;;;23.91;44.59;97641.75;107691;1268;38556;-81
2022/05/09 07:46:23;;;;;;;4.60;3.70;;;;;;;23.83;44.77;97641.29;107626;1270;54213;-81
2022/05/09 07:48:54;;;;;;;6.10;4.30;;;;;;;23.20;44.28;97645.67;107709;1268;54031;-82
2022/05/09 07:51:25;;;;;;;6.80;4.20;;;;;;;22.98;46.27;97643.90;107653;1268;46442;-82
2022/05/09 07:53:56;;;;;;;4.70;4.20;;;;;;;23.33;44.29;97640.50;107673;1268;43725;-81
2022/05/09 07:56:27;;;;;;;5.40;4.20;;;;;;;22.99;44.90;97645.03;107717;1270;36749;-82
2022/05/09 07:58:59;;;;;;;4.30;3.90;;;;;;;23.49;46.32;97642.03;107661;1268;43848;-82
2022/05/09 08:01:30;;;;;;;5.90;3.50;;;;;;;25.54;46.73;97636.03;107562;1271;59693;-82
2022/05/09 08:04:01;;;;;;;4.40;4.00;;;;;;;27.56;40.82;97635.21;107639;1268;63097;-82
2022/05/09 08:06:33;;;;;;;3.90;3.50;;;;;;;28.22;40.20;97635.51;106469;1271;1602981;-82
2022/05/09 08:09:05;;;;;;;4.00;3.30;;;;;;;29.28;37.60;97637.68;107665;1270;46915;-82
2022/05/09 08:11:36;;;;;;;5.10;3.00;;;;;;;29.93;38.82;97634.39;107671;1268;68554;-83
2022/05/09 08:14:08;;;;;;;3.00;2.60;;;;;;;30.77;35.37;97637.47;107687;1268;45392;-78
2022/05/09 08:16:41;;;;;;;3.90;2.50;;;;;;;30.02;34.67;97637.13;107608;1268;50878;-82
2022/05/09 08:19:14;;;;;;;3.20;2.90;;;;;;;29.75;32.26;97643.58;107624;1271;57495;-82
2022/05/09 08:21:49;;;;;;;4.30;2.90;;;;;;;29.58;32.35;97642.64;107797;1268;32874;-83
2022/05/09 08:24:20;;;;;;;3.80;3.10;;;;;;;30.06;33.95;97638.33;107687;1268;51500;-82
2022/05/09 08:26:51;;;;;;;5.10;2.70;;;;;;;30.32;33.23;97640.45;107666;1268;43415;-82
2022/05/09 08:29:22;;;;;;;4.50;3.20;;;;;;;29.62;32.50;97641.40;107699;1268;36880;-82
2022/05/09 08:31:53;;;;;;;4.70;3.50;;;;;;;27.48;32.90;97645.67;107752;1268;32025;-82
2022/05/09 08:34:24;;;;;;;4.90;3.30;;;;;;;25.81;34.76;97648.41;107615;1268;52019;-82
2022/05/09 08:36:55;;;;;;;4.00;3.30;;;;;;;24.71;37.40;97651.19;107624;1268;53458;-82
2022/05/09 08:39:27;;;;;;;6.00;3.70;;;;;;;24.44;38.40;97649.72;107610;1269;38848;-81
2022/05/09 08:42:02;;;;;;;5.30;4.10;;;;;;;24.30;38.88;97649.16;107640;1268;36079;-82
2022/05/09 08:45:06;;;;;;;4.90;3.80;;;;;;;23.87;39.59;97649.05;107636;1271;54379;-82
2022/05/09 08:47:50;;;;;;;5.70;4.30;;;;;;;24.00;40.72;97649.31;107589;1268;39030;-77
2022/05/09 08:50:30;;;;;;;5.40;4.80;;;;;;;23.86;40.82;97653.45;107690;1268;33215;-82
2022/05/09 08:53:06;;;;;;;5.40;4.40;;;;;;;23.65;41.76;97657.52;107560;1271;52361;-82
2022/05/09 08:55:41;;;;;;;6.10;4.10;;;;;;;23.98;42.24;97658.67;107662;1268;46081;-78
2022/05/09 08:58:23;;;;;;;6.40;4.40;;;;;;;23.86;41.37;97656.83;107657;1268;45074;-82
2022/05/09 09:00:56;;;;;;;5.30;3.70;;;;;;;22.85;41.35;97659.91;107633;1271;36931;-82
2022/05/09 09:03:33;;;;;;;6.00;3.20;;;;;;;22.72;42.26;97661.74;107618;1271;39025;-81
2022/05/09 09:06:11;;;;;;;3.50;2.80;;;;;;;23.31;42.60;97661.13;107670;1271;36133;-81
2022/05/09 09:08:54;;;;;;;4.10;3.60;;;;;;;24.44;40.13;97656.83;107615;1271;39900;-81
2022/05/09 09:11:37;;;;;;;4.30;3.50;;;;;;;25.13;39.50;97660.43;107693;1268;35589;-81
2022/05/09 09:14:17;;;;;;;5.40;3.80;;;;;;;24.72;37.99;97656.17;107697;1268;35623;-81
2022/05/09 09:16:59;;;;;;;5.10;3.80;;;;;;;23.87;39.51;97662.14;107643;1268;43807;-82
2022/05/09 09:20:02;;;;;;;5.40;4.00;;;;;;;23.14;39.37;97664.69;107658;1268;40630;-81
2022/05/09 09:22:49;;;;;;;6.80;4.60;;;;;;;22.21;42.58;97664.09;107684;1271;37244;-81
2022/05/09 09:25:33;;;;;;;7.60;4.50;;;;;;;21.99;43.37;97666.08;107566;1271;44156;-81
2022/05/09 09:28:08;;;;;;;5.50;4.30;;;;;;;21.83;44.24;97666.77;107695;1271;31683;-81
2022/05/09 09:30:42;;;;;;;5.00;3.90;;;;;;;21.80;44.44;97664.55;107697;1268;32486;-81
2022/05/09 09:33:17;;;;;;;6.90;4.70;;;;;;;22.11;44.94;97665.38;107678;1268;36981;-82
2022/05/09 09:35:55;;;;;;;5.30;4.20;;;;;;;22.16;44.13;97666.48;107624;1267;49411;-81
2022/05/09 09:38:40;;;;;;;6.40;4.60;;;;;;;21.80;44.18;97664.54;107705;1268;35416;-81
2022/05/09 09:41:28;;;;;;;6.50;4.80;;;;;;;21.36;44.47;97663.67;107607;1268;45111;-81
2022/05/09 09:44:06;;;;;;;6.10;4.30;;;;;;;21.14;44.71;97664.30;107646;1268;57481;-81
2022/05/09 09:47:04;;;;;;;7.00;4.50;;;;;;;21.11;45.27;97663.67;107654;1268;50129;-76
2022/05/09 09:49:37;;;;;;;6.10;4.50;;;;;;;21.14;45.26;97666.36;107711;1270;39462;-82
2022/05/09 09:52:19;;;;;;;6.70;4.90;;;;;;;21.06;45.33;97663.27;107741;1267;35619;-81
2022/05/09 09:54:56;;;;;;;7.00;5.40;;;;;;;21.03;44.90;97663.88;107726;1268;35825;-81
2022/05/09 09:57:35;;;;;;;5.20;4.40;;;;;;;20.84;44.80;97662.45;107640;1269;45817;-82
2022/05/09 10:00:19;;;;;;;6.80;4.50;;;;;;;20.92;45.68;97660.02;107799;1268;44961;-82
2022/05/09 10:02:51;;;;;;;7.10;4.70;;;;;;;20.86;45.03;97661.08;107591;1268;67981;-81
2022/05/09 10:05:32;;;;;;;7.00;5.00;;;;;;;20.63;45.54;97661.13;107671;1268;60279;-82
2022/05/09 10:08:20;;;;;;;9.10;5.20;;;;;;;20.60;46.31;97661.27;107670;1271;65740;-81
2022/05/09 10:11:02;;;;;;;9.40;6.00;;;;;;;20.53;46.83;97662.34;107648;1270;63196;-81
2022/05/09 10:13:43;;;;;;;8.20;5.40;;;;;;;20.39;47.16;97663.73;107651;1270;43368;-81
2022/05/09 10:16:24;;;;;;;9.10;5.30;;;;;;;20.31;47.27;97661.06;107661;1270;54509;-81
2022/05/09 10:18:56;;;;;;;7.20;5.20;;;;;;;20.26;47.67;97659.15;107607;1270;39669;-81
2022/05/09 10:27:28;;;;;;;8.30;4.90;;;;;;;20.45;47.37;97651.56;107697;1268;35709;-81
2022/05/09 10:30:02;;;;;;;6.00;4.60;;;;;;;20.51;48.05;97648.07;107657;1268;107303;-81
2022/05/09 10:32:43;;;;;;;6.50;4.40;;;;;;;20.65;48.29;97647.75;107832;1269;39687;-81
2022/05/09 10:35:21;;;;;;;6.00;4.40;;;;;;;20.70;46.73;97644.70;107629;1268;47490;-81
2022/05/09 10:38:00;;;;;;;6.00;4.20;;;;;;;20.64;47.07;97645.40;107646;1270;34124;-82
2022/05/09 10:40:35;;;;;;;5.20;4.70;;;;;;;20.70;46.52;97645.81;107654;1268;43367;-81
2022/05/09 10:43:10;;;;;;;5.90;4.60;;;;;;;20.39;46.59;97647.45;107850;1268;38010;-82
2022/05/09 10:45:46;;;;;;;7.20;4.70;;;;;;;20.16;47.49;97643.83;107664;1269;47459;-81
2022/05/09 10:48:26;;;;;;;8.60;5.30;;;;;;;20.13;48.03;97647.64;107707;1268;36586;-81
2022/05/09 10:51:03;;;;;;;7.70;5.40;;;;;;;20.07;48.66;97647.30;107668;1267;38484;-81
2022/05/09 10:53:41;;;;;;;7.90;5.20;;;;;;;20.05;48.63;97644.32;107785;1268;50610;-82
2022/05/09 10:56:18;;;;;;;7.80;4.90;;;;;;;20.08;48.87;97640.55;107674;1268;37712;-81
2022/05/09 10:58:55;;;;;;;7.90;5.20;;;;;;;20.06;48.92;97640.61;107676;1268;44625;-81
2022/05/09 11:01:31;;;;;;;8.60;5.60;;;;;;;20.13;49.32;97638.57;107691;1268;33160;-81
2022/05/09 11:04:04;;;;;;;6.40;5.10;;;;;;;20.22;48.26;97638.36;107709;1268;39997;-81
2022/05/09 11:06:50;;;;;;;6.90;5.10;;;;;;;20.10;48.68;97632.80;107729;1268;37593;-81
2022/05/09 11:09:31;;;;;;;7.00;4.80;;;;;;;20.06;47.82;97633.39;107664;1270;32539;-82
2022/05/09 11:12:18;;;;;;;7.70;4.70;;;;;;;20.10;48.58;97633.11;107682;1268;35178;-81
2022/05/09 11:15:03;;;;;;;6.40;4.90;;;;;;;20.30;48.35;97629.25;107477;1268;270497;-80
2022/05/09 11:17:50;;;;;;;6.90;4.50;;;;;;;20.43;47.70;97629.63;107654;1270;45789;-82
2022/05/09 11:20:29;;;;;;;8.30;5.10;;;;;;;20.50;47.52;97630.01;107669;1268;35372;-81
2022/05/09 11:23:15;;;;;;;6.00;4.20;;;;;;;20.67;46.96;97625.23;107703;1268;32365;-82
2022/05/09 11:26:04;;;;;;;5.10;4.20;;;;;;;20.63;44.27;97622.73;107654;1271;38120;-81
2022/05/09 11:28:55;;;;;;;7.60;3.90;;;;;;;20.29;45.16;97615.29;107745;1268;39754;-81
2022/05/09 11:31:34;;;;;;;6.80;3.90;;;;;;;20.18;44.70;97611.30;107602;1270;37326;-81
2022/05/09 11:34:22;;;;;;;7.30;3.60;;;;;;;20.29;46.66;97608.20;107761;1268;39821;-81
2022/05/09 11:37:04;;;;;;;6.50;3.70;;;;;;;20.55;45.87;97604.08;107705;1268;36308;-82
2022/05/09 11:39:46;;;;;;;4.60;3.80;;;;;;;20.68;45.07;97600.80;107684;1268;41750;-81
2022/05/09 11:45:39;;;;;;;3.70;3.10;;;;;;;21.03;45.02;97602.89;107654;1268;34426;-82
2022/05/09 11:48:23;;;;;;;5.60;3.30;;;;;;;20.97;43.97;97603.24;107632;1268;37101;-81
2022/05/09 11:51:02;;;;;;;7.00;3.10;;;;;;;20.92;44.51;97597.01;107683;1268;36837;-81
2022/05/09 11:53:39;;;;;;;5.10;3.30;;;;;;;20.77;44.32;97595.77;107768;1268;39731;-81
2022/05/09 11:56:11;;;;;;;4.40;2.90;;;;;;;20.53;44.38;97595.50;107758;1268;39603;-81
2022/05/09 11:58:44;;;;;;;6.20;3.20;;;;;;;20.29;44.63;97592.20;107564;1270;36184;-81
2022/05/09 12:01:15;;;;;;;5.70;3.20;;;;;;;20.15;44.71;97590.82;107508;1270;61692;-81
2022/05/09 12:04:03;;;;;;;5.80;3.40;;;;;;;20.11;45.01;97591.18;107705;1268;35765;-81
2022/05/09 12:06:40;;;;;;;7.20;3.10;;;;;;;20.09;45.08;97592.03;107623;1270;35969;-81
2022/05/09 12:09:32;;;;;;;6.00;3.20;;;;;;;19.92;43.90;97587.30;107698;1268;33414;-82
2022/05/09 12:12:03;;;;;;;7.00;3.30;;;;;;;19.34;43.29;97585.92;107767;1268;34685;-80
2022/05/09 12:14:50;;;;;;;6.30;3.80;;;;;;;19.09;44.57;97583.58;107722;1268;38543;-81
2022/05/09 12:17:33;;;;;;;6.10;3.30;;;;;;;19.04;45.38;97582.46;107665;1270;34566;-81